Ana Sayfa
METAR-TAF:

METAR-TAF

Havaalanları :

Franklin County, Vermont, Amerika Birleşik Devletleri

Enlem: 44-56-25N, Boylam: 073-05-51W, yükseklik: 69 m

Güncel hava durumu gözlemi

Rapor saat 08:56 UTC de 15 dakika önce yapıldı.
Sakin rüzgar
Sıcaklık 2°C
Nem 80%
Basınç 1013 hPa
Görüş mesafesi: 16.1 km
Açık gökyüzü

METAR: KFSO 250856Z AUTO 00000KT 10SM CLR 02/M01 A2991 RMK AO2 T00151010

Saat: 04:11 (09:11 UTC)


TAF: eksik

4.000'den fazla havaalanı için hava durumu gözlemleri ve tahminleri (METAR ve TAF raporları).

Kullanılabilir istasyonlar harita üzerinde sarı ve kırmızı noktalarla gösterilir.

İstasyonun adını görmek için fareyi noktanın üzerinde gezdirin.

Sonrasında hava gözlem ve tahminlerini görmek için tıklayın.

Haritayı değiştirmek için: yaklaştırmak için siyah artı işaretli yeşil düğmeye ve uzaklaştırmak için de eksi işaretli düğmeye hızla tıklayın; bitişik haritalar için yeşil okları kullanın.


METAR-TAF: